createdAt,value
2023-03-12T00:01:34.630Z,6.43
2023-03-12T00:04:05.250Z,4.70
2023-03-12T00:06:35.347Z,7.13
2023-03-12T00:09:02.400Z,8.17
2023-03-12T00:11:30.861Z,5.67
2023-03-12T00:14:01.094Z,6.23
2023-03-12T00:16:30.368Z,5.30
2023-03-12T00:19:00.707Z,7.03
2023-03-12T00:21:28.700Z,7.30
2023-03-12T00:23:58.883Z,5.77
2023-03-12T00:26:28.084Z,4.20
2023-03-12T00:28:58.242Z,5.87
2023-03-12T00:31:32.902Z,6.90
2023-03-12T00:34:03.548Z,10.97
2023-03-12T00:36:34.131Z,9.83
2023-03-12T00:39:04.590Z,5.17
2023-03-12T00:41:34.784Z,5.30
2023-03-12T00:44:02.073Z,4.87
2023-03-12T00:46:30.242Z,7.13
2023-03-12T00:49:00.356Z,5.87
2023-03-12T00:51:30.395Z,6.43
2023-03-12T00:53:59.501Z,4.27
2023-03-12T00:56:28.595Z,6.80
2023-03-12T00:58:58.732Z,6.20
2023-03-12T01:01:28.936Z,6.10
2023-03-12T01:03:59.864Z,7.43
2023-03-12T01:06:28.103Z,4.80
2023-03-12T01:08:58.220Z,5.37
2023-03-12T01:11:28.400Z,7.67
2023-03-12T01:13:56.370Z,5.33
2023-03-12T01:16:28.400Z,4.07
2023-03-12T01:18:59.795Z,5.60
2023-03-12T01:21:28.883Z,4.70
2023-03-12T01:23:57.593Z,5.93
2023-03-12T01:26:27.679Z,4.50
2023-03-12T01:28:55.836Z,5.47
2023-03-12T01:31:23.129Z,5.00
2023-03-12T01:33:54.066Z,4.73
2023-03-12T01:36:29.719Z,8.00
2023-03-12T01:38:58.852Z,4.20
2023-03-12T01:41:32.814Z,5.87
2023-03-12T01:44:03.891Z,11.17
2023-03-12T01:46:46.177Z,5.83
2023-03-12T01:49:22.319Z,9.40
2023-03-12T01:51:55.844Z,5.43
2023-03-12T01:54:35.651Z,6.57
2023-03-12T01:57:06.304Z,7.80
2023-03-12T01:59:38.366Z,6.40
2023-03-12T02:02:07.443Z,6.63
2023-03-12T02:04:38.812Z,4.43
2023-03-12T02:07:15.072Z,7.23
2023-03-12T02:09:48.824Z,6.97
2023-03-12T02:12:17.362Z,4.43
2023-03-12T02:14:44.562Z,4.67
2023-03-12T02:17:14.627Z,6.77
2023-03-12T02:19:49.368Z,6.30
2023-03-12T02:22:19.338Z,8.47
2023-03-12T02:25:16.294Z,7.77
2023-03-12T02:27:44.300Z,7.10
2023-03-12T02:30:16.095Z,5.77
2023-03-12T02:32:46.846Z,7.03
2023-03-12T02:35:17.375Z,5.40
2023-03-12T02:37:56.895Z,8.70
2023-03-12T02:40:39.241Z,8.03
2023-03-12T02:43:09.483Z,7.20
2023-03-12T02:45:39.668Z,11.40
2023-03-12T02:48:12.769Z,9.93
2023-03-12T02:50:42.767Z,9.40
2023-03-12T02:53:12.824Z,9.83
2023-03-12T02:55:39.896Z,8.93
2023-03-12T02:58:08.242Z,9.43
2023-03-12T03:00:37.895Z,7.93
2023-03-12T03:03:08.022Z,9.07
2023-03-12T03:05:37.338Z,9.10
2023-03-12T03:08:05.997Z,11.40
2023-03-12T03:10:35.043Z,7.60
2023-03-12T03:13:05.185Z,8.80
2023-03-12T03:15:35.334Z,9.40
2023-03-12T03:18:05.968Z,11.70
2023-03-12T03:20:33.102Z,9.90
2023-03-12T03:23:03.604Z,12.63
2023-03-12T03:25:34.307Z,9.50
2023-03-12T03:28:04.497Z,10.17
2023-03-12T03:30:32.948Z,10.00
2023-03-12T03:33:03.406Z,9.03
2023-03-12T03:35:34.518Z,10.87
2023-03-12T03:38:04.622Z,10.37
2023-03-12T03:40:34.611Z,7.57
2023-03-12T03:43:03.764Z,12.90
2023-03-12T03:45:33.804Z,7.50
2023-03-12T03:48:00.998Z,7.57
2023-03-12T03:50:29.526Z,10.50
2023-03-12T03:52:59.598Z,10.90
2023-03-12T03:55:29.606Z,8.03
2023-03-12T03:57:57.694Z,13.33
2023-03-12T04:00:24.826Z,9.43
2023-03-12T04:02:55.512Z,10.97
2023-03-12T04:05:26.011Z,7.97
2023-03-12T04:07:55.822Z,9.17
2023-03-12T04:10:24.656Z,9.03
2023-03-12T04:12:54.016Z,10.53
2023-03-12T04:15:21.103Z,9.57
2023-03-12T04:17:48.340Z,13.47
2023-03-12T04:20:18.541Z,9.93
2023-03-12T04:22:48.625Z,14.50
2023-03-12T04:25:16.662Z,9.47
2023-03-12T04:27:43.715Z,10.77
2023-03-12T04:30:12.207Z,12.80
2023-03-12T04:32:40.272Z,12.87
2023-03-12T04:35:10.440Z,10.20
2023-03-12T04:37:38.483Z,9.93
2023-03-12T04:40:07.996Z,13.37
2023-03-12T04:42:38.675Z,10.73
2023-03-12T04:45:06.993Z,12.57
2023-03-12T04:47:34.977Z,12.47
2023-03-12T04:50:05.350Z,11.73
2023-03-12T04:52:35.566Z,12.60
2023-03-12T04:55:05.150Z,13.73
2023-03-12T04:57:33.286Z,13.47
2023-03-12T05:00:02.681Z,17.57
2023-03-12T05:02:34.858Z,13.67
2023-03-12T05:05:02.074Z,14.60
2023-03-12T05:07:30.070Z,14.27
2023-03-12T05:09:57.018Z,13.33
2023-03-12T05:12:23.990Z,14.43
2023-03-12T05:14:52.072Z,20.70
2023-03-12T05:17:20.166Z,17.00
2023-03-12T05:19:47.175Z,20.87
2023-03-12T05:22:14.308Z,17.73
2023-03-12T05:24:42.480Z,18.03
2023-03-12T05:27:11.703Z,18.07
2023-03-12T05:29:39.032Z,19.87
2023-03-12T05:32:07.993Z,21.20
2023-03-12T05:34:36.426Z,21.93
2023-03-12T05:37:03.564Z,21.77
2023-03-12T05:39:33.656Z,19.17
2023-03-12T05:42:00.713Z,21.73
2023-03-12T05:44:30.719Z,22.63
2023-03-12T05:46:59.787Z,22.90
2023-03-12T05:49:26.791Z,20.30
2023-03-12T05:51:53.742Z,28.40
2023-03-12T05:54:23.164Z,21.87
2023-03-12T05:56:53.293Z,23.53
2023-03-12T05:59:21.613Z,20.87
2023-03-12T06:01:48.746Z,22.40
2023-03-12T06:04:15.738Z,22.70
2023-03-12T06:06:42.757Z,22.33
2023-03-12T06:09:13.067Z,22.43
2023-03-12T06:11:43.298Z,25.97
2023-03-12T06:14:13.554Z,27.37
2023-03-12T06:16:46.438Z,25.30
2023-03-12T06:19:18.065Z,23.27
2023-03-12T06:21:48.085Z,27.23
2023-03-12T06:24:17.163Z,24.53
2023-03-12T06:26:47.347Z,31.83
2023-03-12T06:29:14.395Z,33.00
2023-03-12T06:31:44.654Z,30.23
2023-03-12T06:34:11.810Z,39.10
2023-03-12T06:36:39.989Z,32.43
2023-03-12T06:39:06.979Z,34.63
2023-03-12T06:41:34.098Z,32.43
2023-03-12T06:44:06.028Z,29.47
2023-03-12T06:46:37.178Z,32.63
2023-03-12T06:49:06.185Z,24.40
2023-03-12T06:51:33.269Z,30.53
2023-03-12T06:54:06.423Z,24.17
2023-03-12T06:56:34.414Z,30.97
2023-03-12T06:59:04.788Z,26.10
2023-03-12T07:01:34.948Z,26.60
2023-03-12T07:04:03.961Z,30.20
2023-03-12T07:06:30.985Z,30.13
2023-03-12T07:08:58.037Z,34.43
2023-03-12T07:11:25.033Z,35.23
2023-03-12T07:13:52.320Z,33.57
2023-03-12T07:16:19.364Z,43.57
2023-03-12T07:18:47.396Z,36.87
2023-03-12T07:21:22.723Z,34.43
2023-03-12T07:23:53.335Z,47.10
2023-03-12T07:26:22.436Z,42.03
2023-03-12T07:28:49.674Z,46.10
2023-03-12T07:31:16.742Z,46.33
2023-03-12T07:33:44.947Z,48.23
2023-03-12T07:36:15.239Z,50.57
2023-03-12T07:38:45.434Z,59.63
2023-03-12T07:41:14.459Z,53.97
2023-03-12T07:43:44.692Z,36.80
2023-03-12T07:46:12.990Z,45.67
2023-03-12T07:48:44.136Z,46.97
2023-03-12T07:51:13.459Z,42.23
2023-03-12T07:53:43.478Z,45.53
2023-03-12T07:56:11.738Z,36.07
2023-03-12T07:58:41.027Z,46.27
2023-03-12T08:01:10.361Z,36.40
2023-03-12T08:03:40.812Z,43.30
2023-03-12T08:06:08.124Z,40.47
2023-03-12T08:08:38.382Z,42.77
2023-03-12T08:11:09.545Z,44.43
2023-03-12T08:13:39.640Z,36.43
2023-03-12T08:16:09.334Z,39.03
2023-03-12T08:18:38.566Z,39.70
2023-03-12T08:21:05.627Z,39.17
2023-03-12T08:23:32.610Z,35.67
2023-03-12T08:26:03.224Z,33.57
2023-03-12T08:28:30.952Z,33.20
2023-03-12T08:31:01.168Z,38.60
2023-03-12T08:33:30.203Z,38.93
2023-03-12T08:35:59.132Z,47.17
2023-03-12T08:38:28.329Z,52.93
2023-03-12T08:40:58.120Z,40.37
2023-03-12T08:43:25.693Z,36.13
2023-03-12T08:46:01.168Z,44.10
2023-03-12T08:48:33.703Z,43.27
2023-03-12T08:51:04.449Z,40.87
2023-03-12T08:53:35.804Z,53.67
2023-03-12T08:56:06.430Z,40.80
2023-03-12T08:58:36.740Z,46.60
2023-03-12T09:01:09.731Z,42.47
2023-03-12T09:03:41.495Z,42.80
2023-03-12T09:06:19.598Z,51.17
2023-03-12T09:08:47.774Z,53.83
2023-03-12T09:11:16.336Z,40.47
2023-03-12T09:14:33.404Z,38.97
2023-03-12T09:16:30.510Z,32.37
2023-03-12T09:18:57.667Z,45.63
2023-03-12T09:21:25.636Z,37.50
2023-03-12T09:23:53.066Z,33.93
2023-03-12T09:26:23.161Z,35.90
2023-03-12T09:28:52.247Z,48.47
2023-03-12T09:31:19.449Z,35.97
2023-03-12T09:33:47.521Z,45.23
2023-03-12T09:36:17.727Z,40.53
2023-03-12T09:38:45.641Z,32.07
2023-03-12T09:41:22.316Z,45.43
2023-03-12T09:44:17.177Z,31.40
2023-03-12T09:46:50.740Z,32.73
2023-03-12T09:49:49.398Z,28.87
2023-03-12T09:52:37.280Z,32.70
2023-03-12T09:55:20.002Z,31.60
2023-03-12T09:57:49.440Z,22.87
2023-03-12T10:00:22.879Z,25.93
2023-03-12T10:03:00.013Z,25.77
2023-03-12T10:05:35.699Z,23.38
2023-03-12T10:08:26.811Z,29.75
2023-03-12T10:11:10.639Z,23.48
2023-03-12T10:13:37.691Z,24.15
2023-03-12T10:16:22.773Z,22.42
2023-03-12T10:19:22.259Z,26.80
2023-03-12T10:21:56.982Z,23.85
2023-03-12T10:24:40.916Z,31.77
2023-03-12T10:27:18.939Z,30.17
2023-03-12T10:29:53.223Z,24.45
2023-03-12T10:32:46.303Z,27.90
2023-03-12T10:35:25.367Z,33.20
2023-03-12T10:38:03.093Z,23.67
2023-03-12T10:40:36.797Z,33.50
2023-03-12T10:43:07.181Z,29.67
2023-03-12T10:45:37.390Z,28.25
2023-03-12T10:48:11.954Z,33.90
2023-03-12T10:50:40.850Z,25.20
2023-03-12T10:53:32.168Z,35.63
2023-03-12T10:56:02.188Z,30.63
2023-03-12T10:58:38.168Z,27.73
2023-03-12T11:01:23.343Z,30.63
2023-03-12T11:03:51.707Z,32.07
2023-03-12T11:06:29.794Z,24.83
2023-03-12T11:09:20.083Z,31.87
2023-03-12T11:11:49.799Z,28.50
2023-03-12T11:14:24.689Z,24.80
2023-03-12T11:16:53.649Z,25.20
2023-03-12T11:19:34.706Z,26.57
2023-03-12T11:22:11.800Z,29.03
2023-03-12T11:25:01.251Z,27.37
2023-03-12T11:27:52.735Z,30.33
2023-03-12T11:30:29.678Z,22.40
2023-03-12T11:33:02.292Z,31.87
2023-03-12T11:35:55.614Z,24.20
2023-03-12T11:38:31.258Z,28.43
2023-03-12T11:41:10.548Z,26.13
2023-03-12T11:43:57.188Z,26.67
2023-03-12T11:46:41.865Z,24.67
2023-03-12T11:49:22.695Z,28.33
2023-03-12T11:52:29.938Z,24.67
2023-03-12T11:55:31.023Z,31.40
2023-03-12T11:58:28.073Z,24.63
2023-03-12T12:01:02.324Z,30.57
2023-03-12T12:03:54.319Z,24.70
2023-03-12T12:06:54.232Z,28.07
2023-03-12T12:10:07.235Z,36.43
2023-03-12T12:13:07.581Z,33.37
2023-03-12T12:15:45.810Z,22.63
2023-03-12T12:18:22.112Z,30.53
2023-03-12T12:21:22.696Z,38.20
2023-03-12T12:24:17.024Z,32.80
2023-03-12T12:27:02.253Z,34.27
2023-03-12T12:30:03.317Z,36.50
2023-03-12T12:32:51.510Z,38.70
2023-03-12T12:35:45.678Z,40.10
2023-03-12T12:38:32.889Z,34.27
2023-03-12T12:41:17.189Z,35.57
2023-03-12T12:43:48.986Z,43.73
2023-03-12T12:46:20.873Z,24.23
2023-03-12T12:48:55.722Z,38.07
2023-03-12T12:51:27.237Z,30.50
2023-03-12T12:54:31.561Z,29.33
2023-03-12T12:57:13.015Z,26.70
2023-03-12T12:59:58.875Z,30.77
2023-03-12T13:02:31.869Z,28.20
2023-03-12T13:05:00.129Z,27.57
2023-03-12T13:07:28.112Z,23.00
2023-03-12T13:09:59.952Z,32.07
2023-03-12T13:12:49.860Z,22.10
2023-03-12T13:15:32.280Z,27.10
2023-03-12T13:18:03.235Z,21.40
2023-03-12T13:20:39.518Z,26.57
2023-03-12T13:23:24.575Z,23.40
2023-03-12T13:26:29.866Z,25.10
2023-03-12T13:29:21.406Z,20.67
2023-03-12T13:31:49.679Z,23.43
2023-03-12T13:34:19.717Z,27.13
2023-03-12T13:36:50.589Z,24.77
2023-03-12T13:39:19.443Z,27.83
2023-03-12T13:41:52.630Z,29.77
2023-03-12T13:44:38.181Z,24.80
2023-03-12T13:47:25.901Z,24.63
2023-03-12T13:50:25.352Z,24.17
2023-03-12T13:53:16.006Z,20.83
2023-03-12T13:55:45.048Z,21.97
2023-03-12T13:58:23.712Z,20.73
2023-03-12T14:01:01.457Z,19.23
2023-03-12T14:03:40.551Z,22.43
2023-03-12T14:06:12.433Z,20.57
2023-03-12T14:08:47.276Z,26.17
2023-03-12T14:11:56.825Z,23.10
2023-03-12T14:14:55.864Z,31.13
2023-03-12T14:17:29.008Z,43.70
2023-03-12T14:20:19.173Z,38.07
2023-03-12T14:23:00.340Z,38.83
2023-03-12T14:25:44.762Z,38.03
2023-03-12T14:28:22.879Z,36.87
2023-03-12T14:31:12.009Z,38.37
2023-03-12T14:34:20.842Z,45.17
2023-03-12T14:37:14.822Z,46.40
2023-03-12T14:40:20.047Z,44.87
2023-03-12T14:42:47.615Z,45.30
2023-03-12T14:45:18.983Z,39.87
2023-03-12T14:47:52.114Z,46.43
2023-03-12T14:50:22.139Z,43.60
2023-03-12T14:52:50.646Z,41.57
2023-03-12T14:55:23.331Z,37.40
2023-03-12T14:58:02.679Z,43.00
2023-03-12T15:00:36.941Z,44.10
2023-03-12T15:03:14.254Z,51.10
2023-03-12T15:05:49.522Z,38.13
2023-03-12T15:08:17.648Z,46.77
2023-03-12T15:10:56.814Z,44.57
2023-03-12T15:13:28.061Z,36.33
2023-03-12T15:15:58.409Z,42.70
2023-03-12T15:18:29.070Z,32.63
2023-03-12T15:20:59.162Z,35.30
2023-03-12T15:23:30.552Z,38.70
2023-03-12T15:26:16.338Z,36.67
2023-03-12T15:29:05.557Z,35.60
2023-03-12T15:32:13.248Z,28.60
2023-03-12T15:34:42.680Z,36.73
2023-03-12T15:37:38.904Z,29.07
2023-03-12T15:40:26.297Z,35.27
2023-03-12T15:42:57.674Z,35.20
2023-03-12T15:45:31.413Z,23.83
2023-03-12T15:47:59.619Z,22.80
2023-03-12T15:50:41.421Z,22.83
2023-03-12T15:53:27.175Z,16.20
2023-03-12T15:56:02.052Z,11.27
2023-03-12T15:58:42.207Z,10.83
2023-03-12T16:01:17.333Z,9.90
2023-03-12T16:04:09.140Z,9.53
2023-03-12T16:06:39.653Z,12.53
2023-03-12T16:09:16.655Z,17.30
2023-03-12T16:11:48.183Z,19.10
2023-03-12T16:14:31.891Z,14.20
2023-03-12T16:17:01.041Z,10.97
2023-03-12T16:19:33.955Z,12.30
2023-03-12T16:22:02.227Z,9.97
2023-03-12T16:24:32.346Z,8.57
2023-03-12T16:27:00.227Z,11.90
2023-03-12T16:29:34.406Z,12.47
2023-03-12T16:32:15.263Z,12.23
2023-03-12T16:34:46.084Z,11.53
2023-03-12T16:37:16.472Z,13.40
2023-03-12T16:39:46.553Z,7.93
2023-03-12T16:42:25.871Z,18.37
2023-03-12T16:44:54.095Z,12.53
2023-03-12T16:47:27.027Z,14.10
2023-03-12T16:49:56.803Z,14.83
2023-03-12T16:52:28.590Z,11.57
2023-03-12T16:54:58.277Z,15.70
2023-03-12T16:57:36.650Z,16.13
2023-03-12T17:00:08.651Z,9.27
2023-03-12T17:02:36.362Z,21.57
2023-03-12T17:05:03.555Z,7.93
2023-03-12T17:07:32.793Z,13.33
2023-03-12T17:09:59.835Z,12.43
2023-03-12T17:12:38.899Z,18.13
2023-03-12T17:15:18.812Z,15.03
2023-03-12T17:17:47.713Z,16.97
2023-03-12T17:20:16.459Z,12.20
2023-03-12T17:22:46.826Z,17.87
2023-03-12T17:25:26.245Z,13.80
2023-03-12T17:27:57.484Z,18.10
2023-03-12T17:30:28.843Z,12.20
2023-03-12T17:33:16.898Z,18.43
2023-03-12T17:35:44.759Z,12.00
2023-03-12T17:38:12.670Z,16.20
2023-03-12T17:40:43.552Z,14.47
2023-03-12T17:43:13.622Z,18.13
2023-03-12T17:45:47.554Z,18.87
2023-03-12T17:48:16.491Z,14.63
2023-03-12T17:50:43.933Z,16.40
2023-03-12T17:53:14.105Z,17.00
2023-03-12T17:55:42.248Z,12.73
2023-03-12T17:58:12.348Z,21.20
2023-03-12T18:00:39.637Z,19.47
2023-03-12T18:03:06.742Z,16.80
2023-03-12T18:05:41.674Z,17.63
2023-03-12T18:08:11.282Z,14.37
2023-03-12T18:10:40.804Z,12.73
2023-03-12T18:13:10.609Z,16.47
2023-03-12T18:15:37.978Z,22.23
2023-03-12T18:18:07.431Z,21.60
2023-03-12T18:20:39.320Z,12.40
2023-03-12T18:23:07.086Z,21.77
2023-03-12T18:25:35.128Z,20.80
2023-03-12T18:28:02.219Z,23.23
2023-03-12T18:30:30.231Z,19.20
2023-03-12T18:32:57.437Z,15.03
2023-03-12T18:35:29.176Z,17.60
2023-03-12T18:38:02.448Z,17.10
2023-03-12T18:40:35.264Z,13.93
2023-03-12T18:43:03.477Z,14.43
2023-03-12T18:45:31.147Z,12.73
2023-03-12T18:48:01.244Z,22.53
2023-03-12T18:50:28.340Z,17.90
2023-03-12T18:52:57.420Z,17.90
2023-03-12T18:55:24.416Z,15.93
2023-03-12T18:57:55.356Z,40.50
2023-03-12T19:00:24.613Z,28.23
2023-03-12T19:02:59.009Z,20.63
2023-03-12T19:05:26.030Z,23.90
2023-03-12T19:07:59.135Z,22.00
2023-03-12T19:10:26.190Z,16.57
2023-03-12T19:12:54.292Z,19.53
2023-03-12T19:15:22.675Z,16.73
2023-03-12T19:17:50.470Z,19.13
2023-03-12T19:20:21.444Z,31.67
2023-03-12T19:22:51.642Z,21.90
2023-03-12T19:25:24.763Z,15.53
2023-03-12T19:27:51.970Z,23.37
2023-03-12T19:30:22.355Z,16.07
2023-03-12T19:32:55.302Z,19.80
2023-03-12T19:35:22.592Z,14.83
2023-03-12T19:37:51.704Z,26.77
2023-03-12T19:40:20.982Z,17.30
2023-03-12T19:42:49.064Z,15.27
2023-03-12T19:45:17.127Z,18.37
2023-03-12T19:47:44.228Z,18.97
2023-03-12T19:50:11.796Z,16.90
2023-03-12T19:52:41.816Z,19.13
2023-03-12T19:55:12.268Z,18.03
2023-03-12T19:57:41.583Z,20.30
2023-03-12T20:00:12.421Z,20.33
2023-03-12T20:02:42.632Z,14.47
2023-03-12T20:05:10.256Z,21.10
2023-03-12T20:07:40.485Z,18.53
2023-03-12T20:10:11.682Z,16.70
2023-03-12T20:12:42.060Z,17.67
2023-03-12T20:15:12.476Z,20.13
2023-03-12T20:17:40.506Z,19.97
2023-03-12T20:20:09.117Z,20.07
2023-03-12T20:22:37.248Z,17.97
2023-03-12T20:25:05.673Z,19.07
2023-03-12T20:27:34.286Z,24.53
2023-03-12T20:30:01.376Z,23.43
2023-03-12T20:32:31.501Z,18.70
2023-03-12T20:35:01.589Z,29.67
2023-03-12T20:37:29.017Z,21.43
2023-03-12T20:39:56.225Z,24.90
2023-03-12T20:42:23.268Z,21.77
2023-03-12T20:44:53.308Z,19.93
2023-03-12T20:47:23.147Z,27.80
2023-03-12T20:49:52.185Z,20.83
2023-03-12T20:52:21.147Z,24.87
2023-03-12T20:54:48.226Z,19.60
2023-03-12T20:57:17.808Z,16.83
2023-03-12T20:59:46.820Z,24.37
2023-03-12T21:02:17.018Z,25.67
2023-03-12T21:04:47.230Z,22.80
2023-03-12T21:07:17.328Z,20.43
2023-03-12T21:09:45.317Z,24.10
2023-03-12T21:12:14.336Z,24.47
2023-03-12T21:14:44.471Z,16.33
2023-03-12T21:17:13.863Z,19.10
2023-03-12T21:19:42.067Z,20.30
2023-03-12T21:22:12.469Z,23.13
2023-03-12T21:24:39.714Z,18.97
2023-03-12T21:27:11.566Z,15.20
2023-03-12T21:29:39.578Z,15.73
2023-03-12T21:32:06.805Z,18.90
2023-03-12T21:34:36.934Z,14.53
2023-03-12T21:37:04.996Z,16.57
2023-03-12T21:39:34.053Z,18.30
2023-03-12T21:42:01.158Z,17.47
2023-03-12T21:44:28.527Z,13.13
2023-03-12T21:46:59.003Z,18.23
2023-03-12T21:49:29.479Z,21.43
2023-03-12T21:51:58.472Z,21.70
2023-03-12T21:54:31.198Z,14.23
2023-03-12T21:56:58.406Z,17.07
2023-03-12T21:59:27.559Z,18.17
2023-03-12T22:01:55.403Z,12.73
2023-03-12T22:04:25.837Z,12.83
2023-03-12T22:06:57.027Z,17.93
2023-03-12T22:09:24.092Z,19.10
2023-03-12T22:11:52.108Z,18.90
2023-03-12T22:14:19.184Z,17.43
2023-03-12T22:16:49.523Z,13.20
2023-03-12T22:19:19.247Z,19.30
2023-03-12T22:21:48.283Z,18.87
2023-03-12T22:24:15.325Z,18.97
2023-03-12T22:26:42.427Z,18.17
2023-03-12T22:29:12.706Z,19.17
2023-03-12T22:31:43.177Z,18.00
2023-03-12T22:34:13.243Z,15.97
2023-03-12T22:36:42.034Z,19.53
2023-03-12T22:39:12.123Z,16.77
2023-03-12T22:41:40.182Z,13.70
2023-03-12T22:44:09.221Z,17.83
2023-03-12T22:46:36.877Z,17.53
2023-03-12T22:49:06.015Z,15.63
2023-03-12T22:51:34.316Z,17.83
2023-03-12T22:54:01.407Z,11.20
2023-03-12T22:56:29.735Z,17.57
2023-03-12T22:58:59.958Z,13.00
2023-03-12T23:01:27.205Z,16.23
2023-03-12T23:03:55.185Z,13.10
2023-03-12T23:06:30.116Z,17.13
2023-03-12T23:09:00.882Z,15.27
2023-03-12T23:11:29.898Z,13.53
2023-03-12T23:13:59.010Z,15.33
2023-03-12T23:16:29.312Z,14.30
2023-03-12T23:18:56.692Z,18.43
2023-03-12T23:21:26.333Z,13.97
2023-03-12T23:23:55.327Z,14.83
2023-03-12T23:26:27.536Z,17.40
2023-03-12T23:29:00.658Z,15.53
2023-03-12T23:31:29.766Z,15.47
2023-03-12T23:33:59.961Z,14.67
2023-03-12T23:36:30.418Z,17.33
2023-03-12T23:38:59.476Z,10.77
2023-03-12T23:41:29.671Z,12.90
2023-03-12T23:43:58.855Z,11.43
2023-03-12T23:46:29.106Z,17.70
2023-03-12T23:48:56.182Z,14.67
2023-03-12T23:51:26.925Z,13.20
2023-03-12T23:54:00.805Z,14.60
2023-03-12T23:56:38.507Z,11.40
2023-03-12T23:59:10.393Z,12.93
